Time;durP1;ratioP1;P1;durP2;ratioP2;P2;SDS_P1;SDS_P2;PMS_P1;PMS_P2;Temp;Humidity;BMP_temperature;BMP_pressure;BME280_temperature;BME280_humidity;BME280_pressure;Samples;Min_cycle;Max_cycle;Signal;HPM_P1;HPM_P2
2024/01/10 00:00:38;;;;;;;6.93;5.45;;;-4.20;99.90;;;;;;4877969;29;20182;-42
2024/01/10 00:03:03;;;;;;;8.43;6.82;;;-4.20;99.90;;;;;;4878866;29;20048;-42
2024/01/10 00:05:29;;;;;;;8.77;6.10;;;-4.20;99.90;;;;;;4878305;29;20408;-43
2024/01/10 00:07:55;;;;;;;10.20;5.57;;;-4.10;99.90;;;;;;4876870;29;20109;-41
2024/01/10 00:10:21;;;;;;;8.45;6.28;;;-4.10;99.90;;;;;;4878390;29;20037;-42
2024/01/10 00:12:47;;;;;;;11.73;7.00;;;-4.10;99.90;;;;;;4879251;29;20048;-41
2024/01/10 00:15:13;;;;;;;7.90;5.95;;;-4.20;99.90;;;;;;4879059;29;20420;-41
2024/01/10 00:17:40;;;;;;;10.40;5.80;;;-4.20;99.90;;;;;;4879438;29;20049;-42
2024/01/10 00:20:07;;;;;;;9.13;5.57;;;-4.30;99.90;;;;;;4880012;29;20049;-41
2024/01/10 00:22:32;;;;;;;8.35;5.85;;;-4.20;99.90;;;;;;4879433;29;20495;-42
2024/01/10 00:24:58;;;;;;;8.43;5.63;;;-4.30;99.90;;;;;;4879368;29;20049;-42
2024/01/10 00:27:24;;;;;;;7.85;5.88;;;-4.20;99.90;;;;;;4875029;29;20041;-42
2024/01/10 00:29:51;;;;;;;7.45;5.43;;;-4.20;99.90;;;;;;4872100;29;20071;-41
2024/01/10 00:32:17;;;;;;;7.82;5.18;;;-4.20;99.90;;;;;;4876109;29;20528;-42
2024/01/10 00:34:42;;;;;;;6.80;5.40;;;-4.20;99.90;;;;;;4877096;29;20041;-42
2024/01/10 00:37:08;;;;;;;6.43;4.10;;;-4.30;99.90;;;;;;4877924;29;20045;-42
2024/01/10 00:39:34;;;;;;;8.90;5.05;;;-4.30;99.90;;;;;;4877921;29;20073;-42
2024/01/10 00:42:00;;;;;;;7.25;5.63;;;-4.30;99.90;;;;;;4878311;29;20092;-42
2024/01/10 00:44:26;;;;;;;9.15;5.63;;;-4.30;99.90;;;;;;4876611;29;20041;-42
2024/01/10 00:46:51;;;;;;;10.40;5.55;;;-4.30;99.90;;;;;;4870764;29;20043;-41
2024/01/10 00:49:17;;;;;;;8.95;6.18;;;-4.30;99.90;;;;;;4877213;29;20445;-41
2024/01/10 00:51:42;;;;;;;9.13;5.70;;;-4.30;99.90;;;;;;4877787;29;20500;-42
2024/01/10 00:54:08;;;;;;;6.07;4.63;;;-4.30;99.90;;;;;;4878116;29;20105;-42
2024/01/10 00:56:34;;;;;;;5.80;4.53;;;-4.30;99.90;;;;;;4878381;29;20049;-42
2024/01/10 00:58:59;;;;;;;6.43;4.63;;;-4.30;99.90;;;;;;4877619;29;20049;-42
2024/01/10 01:01:25;;;;;;;9.38;4.82;;;-4.30;99.90;;;;;;4878106;29;20346;-41
2024/01/10 01:03:50;;;;;;;7.22;4.90;;;-4.40;99.90;;;;;;4878108;29;20077;-43
2024/01/10 01:06:16;;;;;;;7.82;5.60;;;-4.40;99.90;;;;;;4877209;29;20492;-41
2024/01/10 01:08:41;;;;;;;8.70;6.43;;;-4.40;99.90;;;;;;4874039;29;20037;-42
2024/01/10 01:11:07;;;;;;;6.53;4.97;;;-4.30;99.90;;;;;;4878042;29;20097;-42
2024/01/10 01:13:34;;;;;;;7.68;5.35;;;-4.40;99.90;;;;;;4879169;29;20178;-44
2024/01/10 01:15:59;;;;;;;8.80;5.20;;;-4.40;99.90;;;;;;4876581;29;20045;-45
2024/01/10 01:18:25;;;;;;;8.68;5.32;;;-4.40;99.90;;;;;;4873982;29;20080;-43
2024/01/10 01:20:51;;;;;;;7.55;5.32;;;-4.40;99.90;;;;;;4872759;29;20040;-42
2024/01/10 01:23:16;;;;;;;9.82;5.82;;;-4.40;99.90;;;;;;4877085;29;20567;-42
2024/01/10 01:25:42;;;;;;;10.25;6.70;;;-4.40;99.90;;;;;;4879123;29;20041;-42
2024/01/10 01:28:08;;;;;;;12.95;5.60;;;-4.40;99.90;;;;;;4876468;29;20129;-42
2024/01/10 01:30:33;;;;;;;8.10;5.40;;;-4.50;99.90;;;;;;4877072;29;20047;-41
2024/01/10 01:32:59;;;;;;;8.23;5.80;;;-4.50;99.90;;;;;;4876947;29;20463;-42
2024/01/10 01:35:25;;;;;;;7.38;5.13;;;-4.60;99.90;;;;;;4876311;29;20053;-42
2024/01/10 01:37:51;;;;;;;6.40;5.13;;;-4.50;99.90;;;;;;4876906;29;20041;-43
2024/01/10 01:40:19;;;;;;;7.25;5.65;;;-4.60;99.90;;;;;;4877546;29;20120;-42
2024/01/10 01:42:48;;;;;;;8.32;6.13;;;-4.60;99.90;;;;;;4876156;29;20120;-42
2024/01/10 01:45:13;;;;;;;7.30;4.60;;;-4.60;99.90;;;;;;4875617;29;20037;-43
2024/01/10 01:47:40;;;;;;;8.50;5.22;;;-4.60;99.90;;;;;;4876226;29;20135;-42
2024/01/10 01:50:07;;;;;;;8.63;5.20;;;-4.60;99.90;;;;;;4876863;29;20080;-43
2024/01/10 01:52:34;;;;;;;4.93;2.95;;;-4.60;99.90;;;;;;4877317;29;20112;-44
2024/01/10 01:55:00;;;;;;;7.05;5.00;;;-4.60;99.90;;;;;;4861906;29;20040;-43
2024/01/10 01:57:26;;;;;;;5.05;3.67;;;-4.60;99.90;;;;;;4879843;29;20052;-43
2024/01/10 01:59:52;;;;;;;6.32;4.18;;;-4.60;99.90;;;;;;4881680;29;20041;-44
2024/01/10 02:02:18;;;;;;;9.90;4.57;;;-4.60;99.90;;;;;;4880327;29;20093;-42
2024/01/10 02:04:46;;;;;;;6.63;4.20;;;-4.60;99.90;;;;;;4881120;29;20041;-43
2024/01/10 02:07:12;;;;;;;8.32;5.65;;;-4.70;99.90;;;;;;4877837;29;20101;-42
2024/01/10 02:09:38;;;;;;;8.35;5.75;;;-4.70;99.90;;;;;;4878335;29;20456;-42
2024/01/10 02:12:04;;;;;;;5.20;4.22;;;-4.70;99.90;;;;;;4880320;29;20072;-41
2024/01/10 02:14:30;;;;;;;6.20;4.43;;;-4.70;99.90;;;;;;4879457;29;20041;-44
2024/01/10 02:16:56;;;;;;;9.25;5.07;;;-4.70;99.90;;;;;;4878216;29;20044;-42
2024/01/10 02:19:23;;;;;;;8.77;5.50;;;-4.70;99.90;;;;;;4879551;29;20041;-45
2024/01/10 02:21:49;;;;;;;6.70;4.07;;;-4.70;99.90;;;;;;4876538;29;20148;-43
2024/01/10 02:24:14;;;;;;;6.40;5.40;;;-4.70;99.90;;;;;;4876352;29;20139;-42
2024/01/10 02:26:40;;;;;;;9.50;5.25;;;-4.70;99.90;;;;;;4880391;29;20480;-43
2024/01/10 02:29:07;;;;;;;6.32;4.28;;;-4.70;99.90;;;;;;4886974;29;20052;-44
2024/01/10 02:31:33;;;;;;;5.20;3.80;;;-4.70;99.90;;;;;;4892775;29;20051;-45
2024/01/10 02:33:59;;;;;;;7.50;5.55;;;-4.70;99.90;;;;;;4873629;29;20387;-42
2024/01/10 02:36:24;;;;;;;8.82;5.82;;;-4.70;99.90;;;;;;4883983;29;20555;-43
2024/01/10 02:38:50;;;;;;;6.53;5.20;;;-4.80;99.90;;;;;;4875016;29;20170;-43
2024/01/10 02:41:15;;;;;;;8.32;4.35;;;-4.80;99.90;;;;;;4881397;29;20045;-42
2024/01/10 02:43:41;;;;;;;7.28;5.22;;;-4.80;99.90;;;;;;4889785;29;20044;-41
2024/01/10 02:46:07;;;;;;;8.05;5.80;;;-4.80;99.90;;;;;;4862980;29;20093;-43
2024/01/10 02:48:32;;;;;;;7.90;4.50;;;-4.80;99.90;;;;;;4878907;29;20062;-44
2024/01/10 02:50:58;;;;;;;8.82;6.13;;;-4.70;99.90;;;;;;4877949;29;20060;-42
2024/01/10 02:53:23;;;;;;;7.32;5.35;;;-4.80;99.90;;;;;;4877372;29;20060;-43
2024/01/10 02:55:50;;;;;;;8.32;6.03;;;-4.80;99.90;;;;;;4885615;29;20080;-42
2024/01/10 02:58:16;;;;;;;6.07;4.25;;;-4.80;99.90;;;;;;4875391;29;20059;-41
2024/01/10 03:00:41;;;;;;;8.23;6.05;;;-4.80;99.90;;;;;;4882258;29;20373;-42
2024/01/10 03:03:07;;;;;;;7.88;5.97;;;-4.80;99.90;;;;;;4878954;29;20045;-42
2024/01/10 03:05:32;;;;;;;9.10;5.47;;;-4.80;99.90;;;;;;4877986;29;20068;-42
2024/01/10 03:07:58;;;;;;;8.38;6.60;;;-4.80;99.90;;;;;;4878907;29;20048;-42
2024/01/10 03:10:24;;;;;;;8.00;5.85;;;-4.80;99.90;;;;;;4879080;29;20132;-43
2024/01/10 03:12:49;;;;;;;11.07;6.00;;;-4.90;99.90;;;;;;4878092;29;20056;-43
2024/01/10 03:15:15;;;;;;;8.73;5.40;;;-4.90;99.90;;;;;;4880167;29;20085;-42
2024/01/10 03:17:40;;;;;;;8.85;6.80;;;-4.90;99.90;;;;;;4878788;29;20037;-43
2024/01/10 03:20:08;;;;;;;9.23;6.15;;;-4.90;99.90;;;;;;4879189;29;20515;-41
2024/01/10 03:22:34;;;;;;;9.97;6.57;;;-4.80;99.90;;;;;;4878548;29;20056;-42
2024/01/10 03:25:00;;;;;;;8.30;5.28;;;-4.90;99.90;;;;;;4877424;29;20290;-42
2024/01/10 03:27:26;;;;;;;9.00;6.65;;;-4.90;99.90;;;;;;4880897;29;20045;-42
2024/01/10 03:29:51;;;;;;;7.38;5.00;;;-4.90;99.90;;;;;;4879363;29;20410;-42
2024/01/10 03:32:17;;;;;;;9.43;6.25;;;-4.90;99.90;;;;;;4862176;29;20093;-41
2024/01/10 03:34:42;;;;;;;9.95;6.13;;;-4.90;99.90;;;;;;4882138;29;22519;-41
2024/01/10 03:37:08;;;;;;;8.30;5.70;;;-5.00;99.90;;;;;;4877324;29;20045;-43
2024/01/10 03:39:34;;;;;;;11.18;6.50;;;-4.90;99.90;;;;;;4877588;29;20049;-41
2024/01/10 03:41:59;;;;;;;6.75;5.47;;;-4.90;99.90;;;;;;4879436;29;20072;-42
2024/01/10 03:44:26;;;;;;;7.47;5.10;;;-4.90;99.90;;;;;;4877371;29;20044;-43
2024/01/10 03:46:52;;;;;;;8.38;5.53;;;-4.80;99.90;;;;;;4878598;29;20460;-42
2024/01/10 03:49:18;;;;;;;8.60;6.30;;;-4.90;99.90;;;;;;4878300;29;20041;-41
2024/01/10 03:51:43;;;;;;;7.80;5.13;;;-4.90;99.90;;;;;;4878925;29;20107;-41
2024/01/10 03:54:09;;;;;;;9.70;6.28;;;-4.90;99.90;;;;;;4878582;29;20041;-42
2024/01/10 03:56:35;;;;;;;6.30;5.25;;;-4.90;99.90;;;;;;4875495;29;20090;-45
2024/01/10 03:59:01;;;;;;;8.88;6.32;;;-4.80;99.90;;;;;;4878749;29;20120;-42
2024/01/10 04:01:27;;;;;;;7.75;5.22;;;-4.80;99.90;;;;;;4863211;29;20060;-43
2024/01/10 04:03:52;;;;;;;9.80;6.57;;;-4.80;99.90;;;;;;4878082;29;20041;-42
2024/01/10 04:06:18;;;;;;;10.18;5.20;;;-4.80;99.90;;;;;;4860368;29;20092;-43
2024/01/10 04:08:44;;;;;;;7.88;6.10;;;-4.80;99.90;;;;;;4858770;29;20053;-42
2024/01/10 04:11:09;;;;;;;6.88;4.80;;;-4.80;99.90;;;;;;4878026;29;20056;-43
2024/01/10 04:13:35;;;;;;;6.40;4.82;;;-4.80;99.90;;;;;;4878495;29;20049;-42
2024/01/10 04:16:00;;;;;;;8.10;5.30;;;-4.80;99.90;;;;;;4876604;29;20090;-44
2024/01/10 04:18:26;;;;;;;9.65;5.90;;;-4.70;99.90;;;;;;4877008;29;20115;-42
2024/01/10 04:20:52;;;;;;;8.55;4.88;;;-4.80;99.90;;;;;;4877502;29;20041;-43
2024/01/10 04:23:17;;;;;;;10.25;6.75;;;-4.70;99.90;;;;;;4877630;29;20109;-41
2024/01/10 04:25:43;;;;;;;8.18;6.63;;;-4.70;99.90;;;;;;4885572;29;20044;-44
2024/01/10 04:28:08;;;;;;;9.13;6.22;;;-4.80;99.90;;;;;;4877650;29;20056;-42
2024/01/10 04:30:34;;;;;;;9.52;6.45;;;-4.80;99.90;;;;;;4878122;29;20093;-42
2024/01/10 04:33:00;;;;;;;9.02;6.75;;;-4.80;99.90;;;;;;4878939;29;20056;-42
2024/01/10 04:35:26;;;;;;;10.18;7.00;;;-4.90;99.90;;;;;;4879773;29;20081;-42
2024/01/10 04:37:51;;;;;;;7.90;5.70;;;-4.90;99.90;;;;;;4877882;29;20080;-43
2024/01/10 04:40:17;;;;;;;6.78;4.90;;;-4.90;99.90;;;;;;4877740;29;20037;-43
2024/01/10 04:42:43;;;;;;;7.53;4.72;;;-4.80;99.90;;;;;;4878682;29;20048;-42
2024/01/10 04:45:09;;;;;;;7.57;5.30;;;-4.80;99.90;;;;;;4876985;29;20045;-43
2024/01/10 04:47:35;;;;;;;8.85;6.35;;;-4.90;99.90;;;;;;4876475;29;20140;-41
2024/01/10 04:50:01;;;;;;;9.18;5.57;;;-4.90;99.90;;;;;;4859128;29;20127;-41
2024/01/10 04:52:26;;;;;;;10.95;6.07;;;-4.90;99.90;;;;;;4877337;29;20037;-41
2024/01/10 04:54:52;;;;;;;9.27;6.43;;;-4.80;99.90;;;;;;4878502;29;20041;-43
2024/01/10 04:57:18;;;;;;;10.70;7.30;;;-4.90;99.90;;;;;;4878145;29;20123;-42
2024/01/10 04:59:43;;;;;;;9.23;7.00;;;-4.90;99.90;;;;;;4882225;29;20045;-42
2024/01/10 05:02:10;;;;;;;10.05;6.78;;;-4.80;99.90;;;;;;4876286;29;20046;-43
2024/01/10 05:04:35;;;;;;;11.52;7.57;;;-4.90;99.90;;;;;;4876979;29;20056;-41
2024/01/10 05:07:01;;;;;;;12.73;7.75;;;-4.90;99.90;;;;;;4877503;29;20044;-42
2024/01/10 05:09:26;;;;;;;10.82;7.82;;;-4.90;99.90;;;;;;4875730;29;20619;-42
2024/01/10 05:11:52;;;;;;;12.77;6.60;;;-4.90;99.90;;;;;;4868181;29;20045;-43
2024/01/10 05:14:21;;;;;;;9.40;6.82;;;-4.90;99.90;;;;;;4880913;29;20049;-43
2024/01/10 05:16:49;;;;;;;7.60;6.00;;;-4.90;99.90;;;;;;4874277;29;20053;-42
2024/01/10 05:19:15;;;;;;;8.95;6.75;;;-4.90;99.90;;;;;;4877149;29;20047;-43
2024/01/10 05:21:41;;;;;;;9.32;6.40;;;-4.80;99.90;;;;;;4875691;29;20037;-42
2024/01/10 05:24:06;;;;;;;10.38;7.00;;;-4.90;99.90;;;;;;4876294;29;20053;-41
2024/01/10 05:26:32;;;;;;;7.85;4.97;;;-4.80;99.90;;;;;;4876757;29;20130;-42
2024/01/10 05:28:57;;;;;;;7.75;5.68;;;-4.90;99.90;;;;;;4844736;29;20045;-42
2024/01/10 05:31:23;;;;;;;9.10;6.65;;;-4.80;99.90;;;;;;4874979;29;20156;-41
2024/01/10 05:33:49;;;;;;;7.32;5.38;;;-4.90;99.90;;;;;;4875655;29;20492;-42
2024/01/10 05:36:14;;;;;;;9.93;7.30;;;-4.80;99.90;;;;;;4877104;29;20045;-41
2024/01/10 05:38:41;;;;;;;11.85;7.82;;;-4.90;99.90;;;;;;4880262;29;20059;-42
2024/01/10 05:41:06;;;;;;;10.85;8.05;;;-4.90;99.90;;;;;;4875826;29;20539;-41
2024/01/10 05:43:32;;;;;;;12.18;8.73;;;-4.90;99.90;;;;;;4875070;29;20045;-44
2024/01/10 05:45:59;;;;;;;10.82;6.88;;;-4.90;99.90;;;;;;4875842;29;20041;-41
2024/01/10 05:48:24;;;;;;;12.02;7.57;;;-4.80;99.90;;;;;;4877350;29;20067;-42
2024/01/10 05:50:50;;;;;;;13.85;8.68;;;-4.90;99.90;;;;;;4877090;29;20053;-42
2024/01/10 05:53:17;;;;;;;7.28;6.20;;;-4.90;99.90;;;;;;4875104;29;20045;-42
2024/01/10 05:55:43;;;;;;;12.77;8.15;;;-4.90;99.90;;;;;;4877398;29;20049;-43
2024/01/10 05:58:10;;;;;;;9.90;7.22;;;-4.90;99.90;;;;;;4877171;29;20045;-42
2024/01/10 06:00:35;;;;;;;11.63;8.00;;;-4.90;99.90;;;;;;4876614;29;20085;-41
2024/01/10 06:03:01;;;;;;;7.65;6.00;;;-4.90;99.90;;;;;;4877751;29;20072;-42
2024/01/10 06:05:26;;;;;;;9.65;7.35;;;-4.90;99.90;;;;;;4878243;29;20384;-42
2024/01/10 06:07:52;;;;;;;11.77;7.68;;;-4.90;99.90;;;;;;4875643;29;20049;-44
2024/01/10 06:10:18;;;;;;;8.80;4.90;;;-4.90;99.90;;;;;;4875792;29;20136;-43
2024/01/10 06:12:43;;;;;;;11.98;8.45;;;-4.90;99.90;;;;;;4877958;29;20495;-42
2024/01/10 06:15:09;;;;;;;12.88;8.57;;;-4.90;99.90;;;;;;4873928;29;20056;-42
2024/01/10 06:17:35;;;;;;;12.82;8.35;;;-4.90;99.90;;;;;;4876216;29;20037;-44
2024/01/10 06:20:03;;;;;;;10.50;7.88;;;-5.00;99.90;;;;;;4874740;29;20071;-42
2024/01/10 06:22:28;;;;;;;12.30;8.60;;;-5.00;99.90;;;;;;4876159;29;20096;-42
2024/01/10 06:24:54;;;;;;;13.10;7.07;;;-5.00;99.90;;;;;;4858263;29;20057;-43
2024/01/10 06:27:20;;;;;;;13.80;9.15;;;-5.00;99.90;;;;;;4881899;29;20045;-43
2024/01/10 06:29:45;;;;;;;8.98;6.55;;;-5.00;99.90;;;;;;4867022;29;20044;-42
2024/01/10 06:32:11;;;;;;;9.93;6.68;;;-5.00;99.90;;;;;;4883509;29;20177;-43
2024/01/10 06:34:37;;;;;;;7.68;6.20;;;-5.00;99.90;;;;;;4874493;29;20408;-43
2024/01/10 06:37:02;;;;;;;10.70;7.50;;;-5.10;99.90;;;;;;4877463;29;20332;-42
2024/01/10 06:39:28;;;;;;;11.48;8.60;;;-5.10;99.90;;;;;;4868205;29;20041;-43
2024/01/10 06:41:55;;;;;;;12.75;8.40;;;-5.00;99.90;;;;;;4875585;29;20497;-42
2024/01/10 06:44:20;;;;;;;11.68;7.47;;;-5.00;99.90;;;;;;4866012;29;20059;-43
2024/01/10 06:46:46;;;;;;;12.48;8.07;;;-5.00;99.90;;;;;;4881164;29;20571;-45
2024/01/10 06:49:12;;;;;;;12.77;8.20;;;-5.00;99.90;;;;;;4878662;29;20037;-43
2024/01/10 06:51:38;;;;;;;10.25;7.13;;;-5.00;99.90;;;;;;4879381;29;20055;-46
2024/01/10 06:54:05;;;;;;;15.00;9.48;;;-5.00;99.90;;;;;;4880475;29;20494;-43
2024/01/10 06:56:32;;;;;;;13.73;9.68;;;-5.00;99.90;;;;;;4878024;29;20041;-42
2024/01/10 06:58:58;;;;;;;12.85;9.02;;;-5.00;99.90;;;;;;4853083;29;20480;-44
2024/01/10 07:01:24;;;;;;;16.02;10.20;;;-5.00;99.90;;;;;;4878502;29;20073;-41
2024/01/10 07:03:51;;;;;;;17.30;9.75;;;-5.10;99.90;;;;;;4879372;29;20069;-42
2024/01/10 07:06:16;;;;;;;12.32;8.50;;;-5.00;99.90;;;;;;4879393;29;20055;-42
2024/01/10 07:08:44;;;;;;;10.55;7.07;;;-5.00;99.90;;;;;;4878559;29;20037;-43
2024/01/10 07:11:11;;;;;;;13.80;9.10;;;-5.00;99.90;;;;;;4863452;29;20141;-42
2024/01/10 07:13:37;;;;;;;12.77;8.73;;;-5.00;99.90;;;;;;4880754;29;20136;-42
2024/01/10 07:16:03;;;;;;;19.00;9.43;;;-5.00;99.90;;;;;;4880191;29;20546;-42
2024/01/10 07:18:29;;;;;;;13.80;8.40;;;-5.00;99.90;;;;;;4879743;29;20041;-43
2024/01/10 07:20:55;;;;;;;11.25;8.43;;;-5.00;99.90;;;;;;4879670;29;20080;-44
2024/01/10 07:23:20;;;;;;;13.55;9.13;;;-5.00;99.90;;;;;;4879276;29;20087;-42
2024/01/10 07:25:46;;;;;;;15.48;10.45;;;-5.00;99.90;;;;;;4877944;29;20041;-42
2024/01/10 07:28:12;;;;;;;15.50;10.52;;;-5.00;99.90;;;;;;4879424;29;20041;-42
2024/01/10 07:30:37;;;;;;;13.45;8.95;;;-5.00;99.90;;;;;;4876003;29;20444;-42
2024/01/10 07:33:03;;;;;;;17.58;10.40;;;-5.00;99.90;;;;;;4858824;29;20049;-44
2024/01/10 07:35:30;;;;;;;12.52;8.57;;;-5.10;99.90;;;;;;4878390;29;20086;-43
2024/01/10 07:37:56;;;;;;;10.73;6.82;;;-5.10;99.90;;;;;;4886322;29;20551;-42
2024/01/10 07:40:22;;;;;;;13.30;6.35;;;-5.00;99.90;;;;;;4865775;29;20143;-43
2024/01/10 07:42:48;;;;;;;16.02;10.55;;;-5.00;99.90;;;;;;4877869;29;20099;-42
2024/01/10 07:45:13;;;;;;;12.77;9.57;;;-5.00;99.90;;;;;;4878542;29;20089;-42
2024/01/10 07:47:39;;;;;;;15.20;10.25;;;-5.00;99.90;;;;;;4878964;29;20056;-42
2024/01/10 07:50:14;;;;;;;13.18;9.35;;;-5.00;99.90;;;;;;4879327;29;20061;-43
2024/01/10 07:52:40;;;;;;;11.00;7.38;;;-5.00;99.90;;;;;;4876816;29;20195;-42
2024/01/10 07:55:06;;;;;;;17.90;10.20;;;-5.00;99.90;;;;;;4879456;29;20464;-42
2024/01/10 07:57:33;;;;;;;14.00;9.52;;;-5.00;99.90;;;;;;4878010;29;20090;-43
2024/01/10 07:59:59;;;;;;;17.00;11.43;;;-5.00;99.90;;;;;;4878307;29;20389;-43
2024/01/10 08:02:25;;;;;;;14.07;10.10;;;-5.00;99.90;;;;;;4880205;29;20052;-42
2024/01/10 08:04:52;;;;;;;15.70;9.45;;;-5.00;99.90;;;;;;4878010;29;20564;-43
2024/01/10 08:07:17;;;;;;;15.57;9.90;;;-5.00;99.90;;;;;;4877262;29;20457;-44
2024/01/10 08:09:43;;;;;;;13.95;10.50;;;-5.00;99.90;;;;;;4862996;29;20047;-42
2024/01/10 08:12:09;;;;;;;14.93;8.52;;;-5.00;99.90;;;;;;4877624;29;20530;-43
2024/01/10 08:14:34;;;;;;;14.10;9.80;;;-5.00;99.90;;;;;;4878346;29;20045;-43
2024/01/10 08:17:00;;;;;;;12.65;9.50;;;-5.00;99.90;;;;;;4876647;29;20041;-42
2024/01/10 08:19:27;;;;;;;15.75;10.15;;;-5.00;99.90;;;;;;4860289;29;20477;-43
2024/01/10 08:21:53;;;;;;;17.17;10.27;;;-4.90;99.90;;;;;;4859141;29;20045;-43
2024/01/10 08:24:22;;;;;;;14.85;9.55;;;-4.90;99.90;;;;;;4877408;29;20413;-43
2024/01/10 08:26:54;;;;;;;13.73;9.50;;;-4.90;99.90;;;;;;4877023;29;20040;-42
2024/01/10 08:29:20;;;;;;;16.85;10.43;;;-4.90;99.90;;;;;;4875236;29;20503;-43
2024/01/10 08:31:47;;;;;;;12.82;8.00;;;-4.90;99.90;;;;;;4877661;29;20049;-42
2024/01/10 08:34:13;;;;;;;13.70;10.13;;;-4.80;99.90;;;;;;4874761;29;20051;-42
2024/01/10 08:36:39;;;;;;;12.57;9.98;;;-4.70;99.90;;;;;;4877118;29;20492;-42
2024/01/10 08:39:05;;;;;;;12.38;7.97;;;-4.70;99.90;;;;;;4876275;29;20404;-43
2024/01/10 08:41:30;;;;;;;14.60;9.18;;;-4.60;99.90;;;;;;4876438;29;20048;-42
2024/01/10 08:43:56;;;;;;;8.63;5.88;;;-4.60;99.90;;;;;;4875407;29;20700;-42
2024/01/10 08:46:24;;;;;;;13.60;8.63;;;-4.60;99.90;;;;;;4874253;29;20140;-44
2024/01/10 08:48:50;;;;;;;11.25;7.60;;;-4.50;99.90;;;;;;4858435;29;20045;-42
2024/01/10 08:51:16;;;;;;;10.73;7.93;;;-4.50;99.90;;;;;;4878255;29;20064;-44
2024/01/10 08:53:43;;;;;;;13.75;9.25;;;-4.40;99.90;;;;;;4874827;29;20080;-43
2024/01/10 08:56:10;;;;;;;12.10;8.40;;;-4.40;99.90;;;;;;4876997;29;20062;-44
2024/01/10 08:58:36;;;;;;;11.93;9.07;;;-4.40;99.90;;;;;;4875090;29;20124;-45
2024/01/10 09:01:04;;;;;;;14.25;9.20;;;-4.30;99.90;;;;;;4876580;29;20483;-42
2024/01/10 09:03:29;;;;;;;11.85;7.70;;;-4.30;99.90;;;;;;4875555;29;20045;-42
2024/01/10 09:05:55;;;;;;;11.85;8.63;;;-4.20;99.90;;;;;;4877360;29;20071;-43
2024/01/10 09:08:21;;;;;;;11.82;7.68;;;-4.20;99.90;;;;;;4874786;29;20064;-41
2024/01/10 09:10:49;;;;;;;10.55;8.38;;;-4.20;99.90;;;;;;4875105;29;20539;-42
2024/01/10 09:13:14;;;;;;;12.13;8.68;;;-4.20;99.90;;;;;;4876313;29;20408;-42
2024/01/10 09:15:40;;;;;;;11.98;8.52;;;-4.10;99.90;;;;;;4874821;29;20048;-42
2024/01/10 09:18:06;;;;;;;12.52;7.18;;;-4.00;99.90;;;;;;4864162;29;20045;-42
2024/01/10 09:20:31;;;;;;;12.52;9.45;;;-3.90;99.90;;;;;;4872520;29;20048;-44
2024/01/10 09:22:57;;;;;;;11.38;8.43;;;-3.90;99.90;;;;;;4872894;29;20040;-43
2024/01/10 09:25:24;;;;;;;12.20;8.73;;;-3.80;99.90;;;;;;4872815;29;20045;-43
2024/01/10 09:27:50;;;;;;;10.73;7.40;;;-3.80;99.90;;;;;;4874851;29;20055;-43
2024/01/10 09:30:18;;;;;;;10.00;6.88;;;-3.70;99.90;;;;;;4874529;29;20045;-44
2024/01/10 09:32:43;;;;;;;9.18;5.57;;;-3.60;99.90;;;;;;4873133;29;20045;-42
2024/01/10 09:35:09;;;;;;;11.18;8.20;;;-3.60;99.90;;;;;;4869845;29;20150;-43
2024/01/10 09:37:35;;;;;;;11.30;7.47;;;-3.50;99.90;;;;;;4873191;29;20083;-45
2024/01/10 09:40:01;;;;;;;11.00;7.80;;;-3.40;99.90;;;;;;4873743;29;20076;-43
2024/01/10 09:42:27;;;;;;;7.03;5.00;;;-3.40;99.90;;;;;;4863696;29;20506;-45
2024/01/10 09:44:52;;;;;;;10.40;7.88;;;-3.30;99.90;;;;;;4863999;29;20120;-42
2024/01/10 09:47:20;;;;;;;9.98;6.72;;;-3.30;99.90;;;;;;4882620;29;20088;-43
2024/01/10 09:49:46;;;;;;;8.63;7.13;;;-3.20;99.90;;;;;;4889580;29;20200;-42
2024/01/10 09:52:20;;;;;;;10.48;7.75;;;-3.10;99.90;;;;;;4871328;29;20302;-43
2024/01/10 09:54:47;;;;;;;9.20;6.30;;;-3.00;99.90;;;;;;4877031;29;20040;-42
2024/01/10 09:57:13;;;;;;;11.43;8.33;;;-3.00;99.90;;;;;;4874073;29;20064;-43
2024/01/10 09:59:38;;;;;;;8.88;6.90;;;-3.00;99.90;;;;;;4879126;29;20281;-43
2024/01/10 10:02:04;;;;;;;10.27;7.05;;;-2.90;99.90;;;;;;4876483;29;22005;-42
2024/01/10 10:04:30;;;;;;;8.63;6.22;;;-2.80;99.90;;;;;;4873529;29;20047;-45
2024/01/10 10:07:01;;;;;;;7.93;5.85;;;-2.70;99.90;;;;;;4873981;29;20159;-43
2024/01/10 10:09:29;;;;;;;10.10;7.00;;;-2.70;99.90;;;;;;4875090;29;20041;-44
2024/01/10 10:11:55;;;;;;;6.97;5.63;;;-2.60;99.90;;;;;;4857343;29;20080;-42
2024/01/10 10:14:22;;;;;;;7.70;5.20;;;-2.60;99.90;;;;;;4876129;29;20059;-43
2024/01/10 10:16:47;;;;;;;6.75;5.68;;;-2.50;99.90;;;;;;4876074;29;20072;-42
2024/01/10 10:19:23;;;;;;;5.90;4.28;;;-2.40;99.90;;;;;;4882020;29;20112;-43
2024/01/10 10:21:48;;;;;;;6.88;5.80;;;-2.40;99.90;;;;;;4878519;29;20826;-43
2024/01/10 10:24:15;;;;;;;10.40;6.38;;;;;;;;;;4876694;29;20116;-44
2024/01/10 10:26:41;;;;;;;9.68;6.97;;;-2.30;99.90;;;;;;4859062;29;20492;-43
2024/01/10 10:29:07;;;;;;;7.13;5.10;;;;;;;;;;4879354;29;20459;-43
2024/01/10 10:31:33;;;;;;;8.88;7.18;;;-2.20;99.90;;;;;;4875314;29;20098;-44
2024/01/10 10:34:02;;;;;;;8.55;6.00;;;-1.80;99.90;;;;;;4874509;29;20049;-44
2024/01/10 10:36:29;;;;;;;8.85;5.68;;;-2.00;99.90;;;;;;4862252;29;20045;-42
2024/01/10 10:38:55;;;;;;;9.07;6.13;;;-2.00;99.90;;;;;;4875095;29;20097;-43
2024/01/10 10:41:21;;;;;;;8.13;5.65;;;-1.90;99.90;;;;;;4874462;29;20185;-43
2024/01/10 10:43:50;;;;;;;8.15;4.45;;;-1.80;99.90;;;;;;4874015;29;20049;-42
2024/01/10 10:46:16;;;;;;;8.57;6.05;;;-1.70;99.90;;;;;;4875753;29;20499;-44
2024/01/10 10:48:42;;;;;;;5.20;4.35;;;-1.70;99.90;;;;;;4879266;29;20049;-42
2024/01/10 10:51:13;;;;;;;7.38;5.43;;;-1.70;99.90;;;;;;4872670;29;20060;-46
2024/01/10 10:53:40;;;;;;;9.82;6.07;;;;;;;;;;4877252;29;20086;-43
2024/01/10 10:56:07;;;;;;;7.28;5.75;;;-1.40;99.90;;;;;;4879049;29;20056;-42
2024/01/10 10:58:39;;;;;;;7.05;5.53;;;-1.20;99.90;;;;;;4874220;29;20120;-44
2024/01/10 11:01:09;;;;;;;6.63;4.07;;;;;;;;;;4878060;29;20130;-43
2024/01/10 11:03:37;;;;;;;7.53;5.82;;;-1.40;99.90;;;;;;4876808;29;20101;-43
2024/01/10 11:06:04;;;;;;;8.18;5.35;;;-1.30;99.90;;;;;;4872725;29;20073;-43
2024/01/10 11:08:50;;;;;;;9.98;6.38;;;-1.30;99.90;;;;;;4882608;29;20049;-44
2024/01/10 11:11:33;;;;;;;9.20;5.65;;;-1.20;99.90;;;;;;4879119;29;20053;-43
2024/01/10 11:14:33;;;;;;;6.72;5.13;;;-1.20;99.90;;;;;;4877037;29;20060;-43
2024/01/10 11:17:29;;;;;;;7.25;4.60;;;-1.10;99.90;;;;;;4862762;29;20045;-43
2024/01/10 11:19:55;;;;;;;8.43;5.40;;;;;;;;;;4883177;29;20049;-43
2024/01/10 11:22:47;;;;;;;7.85;6.00;;;-0.90;99.90;;;;;;4883123;29;20064;-43
2024/01/10 11:25:14;;;;;;;6.50;5.05;;;-0.90;99.90;;;;;;4883080;29;20052;-42
2024/01/10 11:27:39;;;;;;;7.32;5.10;;;-0.90;99.90;;;;;;4878345;29;20084;-44
2024/01/10 11:30:06;;;;;;;9.25;5.38;;;-0.80;99.90;;;;;;4876912;29;20107;-44
2024/01/10 11:32:34;;;;;;;6.32;4.80;;;-0.70;99.90;;;;;;4877638;29;20044;-44
2024/01/10 11:35:07;;;;;;;6.50;4.28;;;-0.70;99.60;;;;;;4879240;29;20037;-43
2024/01/10 11:37:43;;;;;;;6.93;5.28;;;-0.60;98.90;;;;;;4879195;29;20055;-43
2024/01/10 11:40:09;;;;;;;6.88;5.03;;;-0.50;99.20;;;;;;4861217;29;20063;-44
2024/01/10 11:42:45;;;;;;;9.57;5.35;;;-0.40;98.40;;;;;;4877368;29;20093;-43
2024/01/10 11:45:30;;;;;;;8.55;5.70;;;-0.40;98.60;;;;;;4878362;29;20084;-44
2024/01/10 11:47:56;;;;;;;5.82;4.05;;;-0.30;97.40;;;;;;4877327;29;20052;-44
2024/01/10 11:50:23;;;;;;;5.05;3.10;;;-0.30;96.10;;;;;;4877041;29;20049;-43
2024/01/10 11:52:53;;;;;;;5.20;3.65;;;-0.20;96.20;;;;;;4890821;29;20124;-44
2024/01/10 11:55:51;;;;;;;6.38;3.80;;;-0.10;96.50;;;;;;4879858;29;20036;-46
2024/01/10 11:58:17;;;;;;;8.27;5.05;;;-0.10;95.60;;;;;;4881577;29;20045;-44
2024/01/10 12:00:43;;;;;;;6.07;4.65;;;0.00;95.50;;;;;;4877764;29;20052;-43
2024/01/10 12:03:11;;;;;;;6.50;4.63;;;0.00;95.90;;;;;;4879751;29;20041;-43
2024/01/10 12:05:38;;;;;;;6.45;4.75;;;0.10;96.00;;;;;;4878129;29;20049;-45
2024/01/10 12:08:09;;;;;;;6.30;4.50;;;0.20;95.30;;;;;;4878239;29;20483;-44
2024/01/10 12:10:39;;;;;;;4.25;3.42;;;0.20;95.00;;;;;;4878744;29;20129;-42
2024/01/10 12:13:04;;;;;;;5.63;4.85;;;0.30;95.00;;;;;;4878983;29;20151;-42
2024/01/10 12:15:30;;;;;;;7.70;4.35;;;0.40;95.70;;;;;;4879605;29;20206;-44
2024/01/10 12:17:56;;;;;;;5.38;4.28;;;0.40;95.30;;;;;;4879434;29;20033;-44
2024/01/10 12:20:21;;;;;;;6.28;4.43;;;0.50;94.70;;;;;;4878657;29;20425;-44
2024/01/10 12:22:47;;;;;;;5.35;4.25;;;;;;;;;;4878868;29;20144;-43
2024/01/10 12:25:14;;;;;;;6.32;4.95;;;0.50;94.90;;;;;;4874751;29;20181;-42
2024/01/10 12:27:40;;;;;;;7.70;4.22;;;0.50;94.40;;;;;;4878237;29;20053;-43
2024/01/10 12:30:07;;;;;;;5.85;4.20;;;0.60;94.50;;;;;;4877516;29;20059;-42
2024/01/10 12:32:32;;;;;;;6.57;4.25;;;0.60;94.60;;;;;;4878860;29;20063;-44
2024/01/10 12:35:01;;;;;;;6.43;4.70;;;0.70;95.20;;;;;;4875874;29;20045;-44
2024/01/10 12:37:27;;;;;;;4.15;3.15;;;0.70;94.00;;;;;;4860029;29;20105;-42
2024/01/10 12:39:53;;;;;;;5.80;4.20;;;0.70;93.30;;;;;;4859398;29;20057;-43
2024/01/10 12:42:19;;;;;;;4.22;3.25;;;0.70;93.60;;;;;;4869584;29;20131;-44